createdAt,value
2019-05-13T00:03:16.855Z,5.73
2019-05-13T00:07:20.434Z,5.63
2019-05-13T00:11:24.067Z,5.56
2019-05-13T00:15:27.927Z,5.52
2019-05-13T00:19:33.718Z,5.38
2019-05-13T00:23:36.670Z,5.36
2019-05-13T00:27:40.158Z,5.33
2019-05-13T00:31:43.965Z,5.34
2019-05-13T00:35:48.347Z,5.33
2019-05-13T00:39:54.186Z,5.28
2019-05-13T00:43:57.074Z,5.21
2019-05-13T00:48:00.549Z,5.11
2019-05-13T00:52:04.313Z,5.05
2019-05-13T00:56:07.800Z,5.06
2019-05-13T01:00:14.134Z,5.02
2019-05-13T01:04:17.094Z,5.10
2019-05-13T01:08:23.705Z,5.03
2019-05-13T01:12:26.896Z,4.98
2019-05-13T01:16:30.373Z,4.94
2019-05-13T01:20:34.772Z,4.86
2019-05-13T01:24:38.375Z,4.91
2019-05-13T01:28:43.599Z,4.85
2019-05-13T01:32:47.190Z,4.82
2019-05-13T01:36:50.677Z,4.92
2019-05-13T01:40:54.223Z,4.92
2019-05-13T01:44:57.700Z,4.91
2019-05-13T01:49:01.179Z,4.94
2019-05-13T01:53:04.743Z,4.93
2019-05-13T01:57:08.242Z,4.87
2019-05-13T02:01:13.752Z,4.78
2019-05-13T02:05:17.011Z,4.78
2019-05-13T02:09:24.320Z,4.77
2019-05-13T02:13:27.243Z,4.71
2019-05-13T02:17:30.735Z,4.75
2019-05-13T02:21:34.282Z,4.74
2019-05-13T02:25:38.124Z,4.63
2019-05-13T02:29:43.664Z,4.64
2019-05-13T02:33:47.168Z,4.62
2019-05-13T02:37:52.539Z,4.60
2019-05-13T02:41:55.954Z,4.50
2019-05-13T02:46:04.224Z,4.57
2019-05-13T02:50:07.462Z,4.46
2019-05-13T02:54:12.357Z,4.43
2019-05-13T02:58:16.163Z,4.49
2019-05-13T03:02:22.206Z,4.46
2019-05-13T03:06:24.940Z,4.40
2019-05-13T03:10:28.444Z,4.35
2019-05-13T03:14:32.506Z,4.43
2019-05-13T03:18:36.120Z,4.34
2019-05-13T03:22:43.116Z,4.33
2019-05-13T03:26:45.240Z,4.30
2019-05-13T03:30:48.821Z,4.37
2019-05-13T03:34:56.046Z,4.49
2019-05-13T03:39:05.762Z,4.42
2019-05-13T03:43:04.626Z,4.36
2019-05-13T03:47:12.622Z,4.43
2019-05-13T03:51:16.354Z,4.48
2019-05-13T03:55:23.129Z,4.56
2019-05-13T03:59:25.778Z,4.72
2019-05-13T04:03:29.310Z,4.76
2019-05-13T04:07:33.135Z,4.96
2019-05-13T04:11:37.473Z,4.97
2019-05-13T04:15:42.837Z,5.09
2019-05-13T04:19:46.538Z,5.15
2019-05-13T04:23:53.038Z,5.21
2019-05-13T04:27:57.351Z,5.27
2019-05-13T04:32:02.224Z,5.35
2019-05-13T04:36:06.018Z,5.50
2019-05-13T04:40:12.699Z,5.51
2019-05-13T04:44:15.109Z,5.57
2019-05-13T04:48:22.944Z,5.76
2019-05-13T04:52:25.997Z,6.01
2019-05-13T04:56:32.749Z,6.13
2019-05-13T05:00:49.649Z,6.13
2019-05-13T05:05:03.231Z,6.27
2019-05-13T05:09:28.484Z,6.43
2019-05-13T05:14:02.752Z,6.61
2019-05-13T05:18:32.948Z,6.69
2019-05-13T05:22:42.653Z,6.78
2019-05-13T05:27:05.987Z,6.74
2019-05-13T05:31:32.528Z,6.83
2019-05-13T05:35:48.297Z,7.06
2019-05-13T05:39:55.047Z,7.10
2019-05-13T05:44:02.325Z,7.34
2019-05-13T05:48:08.317Z,7.45
2019-05-13T05:52:12.465Z,7.32
2019-05-13T05:56:17.503Z,7.64
2019-05-13T06:00:21.988Z,7.69
2019-05-13T06:04:28.635Z,8.18
2019-05-13T06:08:32.387Z,8.42
2019-05-13T06:12:36.542Z,8.42
2019-05-13T06:16:42.560Z,8.59
2019-05-13T06:20:46.001Z,9.68
2019-05-13T06:24:52.005Z,9.57
2019-05-13T06:28:55.074Z,9.60
2019-05-13T06:32:58.555Z,9.29
2019-05-13T06:37:02.263Z,9.63
2019-05-13T06:41:10.881Z,9.55
2019-05-13T06:45:12.388Z,9.74
2019-05-13T06:49:16.096Z,10.50
2019-05-13T06:53:21.725Z,11.96
2019-05-13T06:57:25.189Z,14.19
2019-05-13T07:01:28.670Z,15.72
2019-05-13T07:05:32.174Z,19.46
2019-05-13T07:09:35.764Z,20.74
2019-05-13T07:13:39.324Z,22.99
2019-05-13T07:17:43.145Z,21.58
2019-05-13T07:21:46.926Z,22.53
2019-05-13T07:25:52.455Z,22.67
2019-05-13T07:29:55.843Z,23.47
2019-05-13T07:34:02.086Z,22.51
2019-05-13T07:38:05.322Z,23.39
2019-05-13T07:42:08.802Z,22.28
2019-05-13T07:46:12.763Z,23.06
2019-05-13T07:50:16.284Z,24.87
2019-05-13T07:54:22.029Z,27.45
2019-05-13T07:58:24.990Z,24.06
2019-05-13T08:02:28.475Z,25.77
2019-05-13T08:06:32.454Z,24.15
2019-05-13T08:10:36.659Z,27.18
2019-05-13T08:14:43.279Z,27.52
2019-05-13T08:18:45.705Z,28.75
2019-05-13T08:22:51.859Z,26.12
2019-05-13T08:26:54.577Z,25.22
2019-05-13T08:30:58.112Z,26.56
2019-05-13T08:35:08.697Z,27.79
2019-05-13T08:39:12.601Z,26.06
2019-05-13T08:43:15.656Z,27.50
2019-05-13T08:47:19.138Z,26.69
2019-05-13T08:51:22.739Z,27.63
2019-05-13T08:55:26.570Z,25.75
2019-05-13T08:59:31.757Z,24.92
2019-05-13T09:03:35.460Z,25.61
2019-05-13T09:07:41.279Z,25.20
2019-05-13T09:11:44.272Z,25.87
2019-05-13T09:15:47.828Z,25.34
2019-05-13T09:19:52.126Z,23.41
2019-05-13T09:23:56.175Z,24.62
2019-05-13T09:28:02.431Z,27.35
2019-05-13T09:32:04.882Z,28.90
2019-05-13T09:36:08.643Z,29.66
2019-05-13T09:40:12.284Z,28.14
2019-05-13T09:44:15.755Z,25.06
2019-05-13T09:48:22.228Z,22.82
2019-05-13T09:52:25.372Z,24.47
2019-05-13T09:56:28.914Z,24.99
2019-05-13T10:00:35.593Z,20.53
2019-05-13T10:04:43.202Z,23.16
2019-05-13T10:08:44.290Z,23.27
2019-05-13T10:13:07.299Z,21.96
2019-05-13T10:16:53.488Z,20.37
2019-05-13T10:21:01.983Z,24.28
2019-05-13T10:25:07.777Z,24.28
2019-05-13T10:29:12.245Z,25.55
2019-05-13T10:33:15.803Z,26.18
2019-05-13T10:37:21.998Z,23.21
2019-05-13T10:41:25.544Z,25.78
2019-05-13T10:45:29.023Z,24.80
2019-05-13T10:49:33.297Z,22.84
2019-05-13T10:53:37.191Z,21.53
2019-05-13T10:57:42.414Z,22.65
2019-05-13T11:01:46.046Z,23.50
2019-05-13T11:05:52.614Z,22.24
2019-05-13T11:09:56.345Z,21.73
2019-05-13T11:14:10.695Z,21.28
2019-05-13T11:18:05.743Z,19.77
2019-05-13T11:22:12.112Z,19.42
2019-05-13T11:26:14.744Z,18.94
2019-05-13T11:30:21.550Z,19.34
2019-05-13T11:34:23.828Z,19.54
2019-05-13T11:38:27.344Z,19.63
2019-05-13T11:42:32.775Z,19.05
2019-05-13T11:46:37.061Z,19.42
2019-05-13T11:50:42.924Z,19.83
2019-05-13T11:54:46.233Z,19.52
2019-05-13T11:58:53.234Z,19.93
2019-05-13T12:02:55.308Z,19.91
2019-05-13T12:06:58.788Z,19.19
2019-05-13T12:11:04.137Z,18.94
2019-05-13T12:15:38.173Z,18.23
2019-05-13T12:19:13.001Z,19.04
2019-05-13T12:23:16.508Z,17.60
2019-05-13T12:27:20.291Z,17.72
2019-05-13T12:31:23.778Z,17.40
2019-05-13T12:35:27.355Z,17.79
2019-05-13T12:39:32.049Z,18.47
2019-05-13T12:43:37.172Z,18.13
2019-05-13T12:47:48.868Z,18.19
2019-05-13T12:56:23.168Z,18.67
2019-05-13T13:05:10.902Z,18.89
2019-05-13T13:09:16.565Z,18.72
2019-05-13T13:13:52.567Z,17.85
2019-05-13T13:17:32.298Z,17.33
2019-05-13T13:21:37.931Z,17.75
2019-05-13T13:30:53.011Z,16.95
2019-05-13T13:34:57.900Z,17.09
2019-05-13T13:39:05.226Z,17.96
2019-05-13T13:43:13.134Z,17.78
2019-05-13T13:47:24.026Z,18.02
2019-05-13T13:55:55.812Z,18.08
2019-05-13T14:00:26.370Z,17.65
2019-05-13T14:04:24.429Z,17.25
2019-05-13T14:08:29.480Z,17.57
2019-05-13T14:12:43.550Z,17.96
2019-05-13T14:16:53.475Z,18.28
2019-05-13T14:20:59.875Z,17.92
2019-05-13T14:25:16.561Z,18.31
2019-05-13T14:29:38.565Z,17.66
2019-05-13T14:38:02.458Z,17.51
2019-05-13T14:46:52.558Z,17.45
2019-05-13T14:51:03.327Z,17.41
2019-05-13T14:55:13.901Z,17.00
2019-05-13T14:59:22.133Z,17.38
2019-05-13T15:07:58.828Z,17.28
2019-05-13T15:12:07.326Z,17.31
2019-05-13T15:16:15.518Z,16.41
2019-05-13T15:24:45.586Z,15.09
2019-05-13T15:29:04.983Z,14.74
2019-05-13T15:33:08.295Z,14.67
2019-05-13T15:41:38.836Z,15.38
2019-05-13T15:45:43.329Z,15.35
2019-05-13T15:49:57.407Z,15.35
2019-05-13T15:54:05.705Z,15.23
2019-05-13T15:58:16.867Z,15.24
2019-05-13T16:02:23.773Z,15.46
2019-05-13T16:06:45.932Z,15.30
2019-05-13T16:10:53.569Z,15.17
2019-05-13T16:15:02.068Z,14.96
2019-05-13T16:19:16.264Z,14.74
2019-05-13T16:28:32.625Z,15.07
2019-05-13T16:32:38.916Z,14.83
2019-05-13T16:41:51.699Z,14.78
2019-05-13T16:46:03.091Z,14.76
2019-05-13T16:50:12.297Z,14.48
2019-05-13T16:54:18.241Z,14.29
2019-05-13T17:03:32.782Z,14.39
2019-05-13T17:12:45.104Z,14.02
2019-05-13T17:16:53.446Z,13.87
2019-05-13T17:21:01.424Z,13.70
2019-05-13T17:25:12.674Z,13.64
2019-05-13T17:29:18.040Z,13.61
2019-05-13T17:33:36.129Z,13.49
2019-05-13T17:37:48.527Z,13.53
2019-05-13T17:41:57.213Z,13.31
2019-05-13T17:46:07.043Z,13.30
2019-05-13T17:50:13.315Z,13.13
2019-05-13T17:54:25.411Z,12.90
2019-05-13T17:58:52.639Z,12.96
2019-05-13T18:03:06.309Z,12.65
2019-05-13T18:07:21.485Z,12.86
2019-05-13T18:11:39.099Z,12.77
2019-05-13T18:15:42.526Z,12.86
2019-05-13T18:19:45.970Z,13.04
2019-05-13T18:23:52.098Z,12.78
2019-05-13T18:27:55.692Z,12.61
2019-05-13T18:32:01.938Z,12.79
2019-05-13T18:36:06.256Z,12.75
2019-05-13T18:40:11.625Z,12.56
2019-05-13T18:44:15.661Z,12.39
2019-05-13T18:48:21.880Z,12.06
2019-05-13T18:52:26.192Z,12.02
2019-05-13T18:56:32.241Z,11.88
2019-05-13T19:00:38.075Z,11.68
2019-05-13T19:04:41.953Z,11.67
2019-05-13T19:08:45.558Z,11.48
2019-05-13T19:12:49.046Z,11.48
2019-05-13T19:16:52.807Z,11.22
2019-05-13T19:20:56.244Z,11.20
2019-05-13T19:25:01.120Z,11.17
2019-05-13T19:29:04.757Z,11.06
2019-05-13T19:33:08.183Z,10.97
2019-05-13T19:37:12.012Z,10.88
2019-05-13T19:41:15.437Z,10.70
2019-05-13T19:45:18.971Z,10.47
2019-05-13T19:49:32.190Z,10.45
2019-05-13T19:53:28.101Z,10.43
2019-05-13T19:57:31.866Z,10.23
2019-05-13T20:01:35.347Z,10.19
2019-05-13T20:05:41.240Z,10.02
2019-05-13T20:09:44.899Z,9.94
2019-05-13T20:13:48.682Z,9.76
2019-05-13T20:17:52.220Z,9.61
2019-05-13T20:21:56.168Z,9.56
2019-05-13T20:25:59.680Z,9.44
2019-05-13T20:30:03.190Z,9.30
2019-05-13T20:34:06.855Z,9.29
2019-05-13T20:38:11.555Z,9.14
2019-05-13T20:42:15.560Z,9.07
2019-05-13T20:46:19.365Z,9.04
2019-05-13T20:50:22.888Z,8.93
2019-05-13T20:54:26.653Z,8.79
2019-05-13T20:58:31.903Z,8.81
2019-05-13T21:02:35.259Z,8.77
2019-05-13T21:06:38.705Z,8.73
2019-05-13T21:10:42.634Z,8.57
2019-05-13T21:14:46.074Z,8.53
2019-05-13T21:18:49.500Z,8.44
2019-05-13T21:22:54.980Z,8.42
2019-05-13T21:52:18.352Z,8.14
2019-05-13T21:56:22.977Z,8.01
2019-05-13T22:10:31.975Z,7.83
2019-05-13T22:14:35.389Z,7.88
2019-05-13T22:18:38.847Z,7.76
2019-05-13T22:22:42.284Z,7.70
2019-05-13T22:26:45.724Z,7.72
2019-05-13T22:30:51.640Z,7.67
2019-05-13T22:34:54.655Z,7.61
2019-05-13T22:38:58.466Z,7.53
2019-05-13T22:43:01.915Z,7.43
2019-05-13T22:47:05.339Z,7.41
2019-05-13T22:51:08.799Z,7.29
2019-05-13T22:55:12.399Z,7.23
2019-05-13T22:59:15.830Z,7.18
2019-05-13T23:03:19.513Z,7.11
2019-05-13T23:07:23.234Z,7.14
2019-05-13T23:11:26.740Z,7.07
2019-05-13T23:15:30.463Z,7.04
2019-05-13T23:19:34.344Z,7.08
2019-05-13T23:23:38.128Z,7.02
2019-05-13T23:27:42.126Z,7.02
2019-05-13T23:31:45.576Z,6.91
2019-05-13T23:35:49.328Z,6.91
2019-05-13T23:39:52.748Z,6.82
2019-05-13T23:43:56.221Z,6.83
2019-05-13T23:48:01.572Z,6.82
2019-05-13T23:52:04.822Z,6.76
2019-05-13T23:56:08.528Z,6.85
